Vestborg — E5U2070 — position and weather

sailwx.info

Track history (hours):
 
Tides and Currents Weather Stations Pressure Air Temp Water Temp Dewpoint Dewpoint Depression Visibility Wind Speed Wind Dir Waves Ship Positions

Vestborg

Last reported at 2016-May-01 03:33 UTC. Time now 2016-May-01 06:04 UTC.
Position N 57°35' E 010°44'.

Length 66 m; draft 3.9 m.

Type: Cargo ship. MMSI: 518120000.

Date/timePositionNaut miles runAvg speedWind from/ knotsBaromVisibWave heightAir tempDewpointWater temp
2016-May-01 03:33N 57°35' E 010°44'10 9.8
2016-May-01 02:31N 57°25' E 010°45'68 9.7
2016-Apr-30 19:29N 56°17' E 010°56'1010.8
2016-Apr-30 18:33N 56°09' E 010°46'1010.1
2016-Apr-30 17:33N 56°02' E 010°33'3 0.1
2016-Apr-29 09:30N 55°59' E 010°30'7 7.8
2016-Apr-29 08:33N 56°04' E 010°39'7 7.2
2016-Apr-29 07:33N 56°11' E 010°46'8 7.7
2016-Apr-29 06:33N 56°17' E 010°54'43 7.9
2016-Apr-29 01:07N 56°57' E 010°25'6 8.7
2016-Apr-29 00:26N 56°59' E 010°15'8 8.8
2016-Apr-28 23:33N 57°03' E 010°03'4 4.1
2016-Apr-28 22:33N 57°03' E 009°56'0 0.0
2016-Apr-28 21:33N 57°03' E 009°56'0 0.0
2016-Apr-28 20:33N 57°03' E 009°56'0 0.0
2016-Apr-28 19:33N 57°03' E 009°56'0 0.0
2016-Apr-28 18:33N 57°03' E 009°56'0 0.0
2016-Apr-28 17:33N 57°03' E 009°56'0 0.0
2016-Apr-28 16:33N 57°03' E 009°56'0 0.0
2016-Apr-28 15:33N 57°03' E 009°56'0 0.0
2016-Apr-28 14:33N 57°03' E 009°56'0 0.0
2016-Apr-28 13:33N 57°03' E 009°56'0 0.0
2016-Apr-28 12:33N 57°03' E 009°56'0 0.0
2016-Apr-28 11:33N 57°03' E 009°56'0 0.0
2016-Apr-28 10:33N 57°03' E 009°56'0 0.0
2016-Apr-28 09:33N 57°03' E 009°56'0 0.0
2016-Apr-28 08:33N 57°03' E 009°56'0 0.0
2016-Apr-28 07:33N 57°03' E 009°56'0 0.0
2016-Apr-28 06:33N 57°03' E 009°56'0 0.0
2016-Apr-28 05:33N 57°03' E 009°56'3 2.6
2016-Apr-28 04:34N 57°05' E 009°59'8 8.1
2016-Apr-28 03:33N 56°60' E 010°11'39 4.9
2016-Apr-27 19:30N 57°35' E 010°44'8 8.0
2016-Apr-27 18:32N 57°42' E 010°45'7 7.0
2016-Apr-27 17:32N 57°49' E 010°40'8 8.0
2016-Apr-27 16:32N 57°52' E 010°26'49 8.3
2016-Apr-27 10:33N 58°11' E 009°00'7 7.4
2016-Apr-27 09:33N 58°13' E 008°47'7 7.2
2016-Apr-27 08:33N 58°16' E 008°34'4 4.0
2016-Apr-27 07:33N 58°20' E 008°36'0 0.0
2016-Apr-27 06:33N 58°20' E 008°36'0 0.0
2016-Apr-27 05:33N 58°20' E 008°36'0 0.0
2016-Apr-27 04:33N 58°20' E 008°36'0 0.0
2016-Apr-27 03:33N 58°20' E 008°36'0 0.0
2016-Apr-27 02:33N 58°20' E 008°36'0 0.0
2016-Apr-27 01:33N 58°20' E 008°36'0 0.0
2016-Apr-27 00:33N 58°20' E 008°36'0 0.0
2016-Apr-26 23:33N 58°20' E 008°36'0 0.0
2016-Apr-26 22:33N 58°20' E 008°36'0 0.0
2016-Apr-26 21:33N 58°20' E 008°36'0 0.0
2016-Apr-26 20:33N 58°20' E 008°36'0 0.0
2016-Apr-26 19:33N 58°20' E 008°36'0 0.0
2016-Apr-26 18:33N 58°20' E 008°36'4 3.7
2016-Apr-26 17:33N 58°17' E 008°33'6 5.6
2016-Apr-26 16:33N 58°12' E 008°28'5 4.9
2016-Apr-26 15:33N 58°09' E 008°21'4 3.7
2016-Apr-26 14:33N 58°06' E 008°16'28 4.7
2016-Apr-26 08:32N 57°58' E 007°25'7 7.0
2016-Apr-26 07:32N 57°58' E 007°12'6 5.9
2016-Apr-26 06:33N 57°58' E 007°01'7 6.8
2016-Apr-26 05:33N 58°01' E 006°49'7 7.0
2016-Apr-26 04:33N 58°03' E 006°37'7 6.6
2016-Apr-26 03:33N 58°07' E 006°26'7 6.7
2016-Apr-26 02:33N 58°12' E 006°17'8 7.5
2016-Apr-26 01:33N 58°17' E 006°07'7 7.2
2016-Apr-26 00:33N 58°22' E 005°57'8 7.5
2016-Apr-25 23:33N 58°27' E 005°46'8 8.0
2016-Apr-25 22:33N 58°33' E 005°36'10 9.8
2016-Apr-25 21:33N 58°42' E 005°28'10 9.8
2016-Apr-25 20:33N 58°51' E 005°22'1010.1
2016-Apr-25 19:33N 59°01' E 005°19'10 9.6
2016-Apr-25 18:33N 59°11' E 005°20'21 9.2
2016-Apr-25 16:13N 59°32' E 005°13'810.3
2016-Apr-25 15:29N 59°39' E 005°19'1010.7
2016-Apr-25 14:33N 59°46' E 005°32'5 0.3
2016-Apr-24 18:33N 59°52' E 005°33'8 7.9
2016-Apr-24 17:33N 59°44' E 005°29'8 7.7
2016-Apr-24 16:33N 59°38' E 005°19'23 6.5
2016-Apr-24 13:06N 59°16' E 005°20'4 7.8
2016-Apr-24 12:33N 59°11' E 005°21'7 7.0
2016-Apr-24 11:33N 59°06' E 005°31'8 7.7
2016-Apr-24 10:33N 59°02' E 005°42'8 7.7
2016-Apr-24 09:33N 58°58' E 005°56'9 1.3
2016-Apr-24 02:26N 58°52' E 006°09'3 3.3
2016-Apr-24 01:28N 58°54' E 006°04'8 9.1
2016-Apr-24 00:33N 58°59' E 005°53'6 6.1
2016-Apr-23 23:33N 59°05' E 005°55'0 0.0
2016-Apr-23 22:33N 59°05' E 005°55'0 0.0
2016-Apr-23 21:33N 59°05' E 005°55'4 4.4
2016-Apr-23 20:33N 59°10' E 005°53'10 9.8
2016-Apr-23 19:33N 59°20' E 005°55'4 0.7
2016-Apr-23 14:33N 59°23' E 005°55'3 1.6
2016-Apr-23 12:24N 59°25' E 006°01'0 0.0
2016-Apr-23 11:33N 59°25' E 006°01'7 0.3
2016-Apr-22 10:23N 59°18' E 005°57'6 7.8
2016-Apr-22 09:33N 59°11' E 005°54'8 8.1
2016-Apr-22 08:33N 59°03' E 005°51'8 7.5
2016-Apr-22 07:33N 59°02' E 005°37'7 6.5
2016-Apr-22 06:33N 58°56' E 005°33'7 7.2
2016-Apr-22 05:33N 58°49' E 005°28'7 6.6
2016-Apr-22 04:33N 58°42' E 005°27'6 6.5
2016-Apr-22 03:33N 58°36' E 005°30'6 5.9
2016-Apr-22 02:34N 58°31' E 005°36'6 5.9
2016-Apr-22 01:33N 58°27' E 005°44'6 6.1
2016-Apr-22 00:32N 58°23' E 005°53'6 5.6
2016-Apr-21 23:33N 58°19' E 006°01'6 6.2
2016-Apr-21 22:33N 58°15' E 006°10'7 6.5
2016-Apr-21 21:33N 58°11' E 006°19'6 6.2
2016-Apr-21 20:33N 58°07' E 006°28'6 5.9
2016-Apr-21 19:33N 58°03' E 006°37'6 6.4
2016-Apr-21 18:33N 58°01' E 006°48'6 6.5
2016-Apr-21 17:33N 57°59' E 006°59'7 7.0
2016-Apr-21 16:33N 57°58' E 007°13'2 0.2
2016-Apr-21 05:32N 57°58' E 007°17'1010.3
2016-Apr-21 04:34N 57°59' E 006°58'1110.5
2016-Apr-21 03:33N 58°03' E 006°39'  
Track history (hours):
 
Tides and Currents Weather Stations Pressure Air Temp Water Temp Dewpoint Dewpoint Depression Visibility Wind Speed Wind Dir Waves Ship Positions

Vestborg

Last reported at 2016-May-01 03:33 UTC. Time now 2016-May-01 06:04 UTC.
Position N 57°35' E 010°44'.

Length 66 m; draft 3.9 m.

Type: Cargo ship. MMSI: 518120000.

Date/timePositionNaut miles runAvg speedWind from/ knotsBaromVisibWave heightAir tempDewpointWater temp
2016-May-01 03:33N 57°35' E 010°44'10 9.8
2016-May-01 02:31N 57°25' E 010°45'68 9.7
2016-Apr-30 19:29N 56°17' E 010°56'1010.8
2016-Apr-30 18:33N 56°09' E 010°46'1010.1
2016-Apr-30 17:33N 56°02' E 010°33'3 0.1
2016-Apr-29 09:30N 55°59' E 010°30'7 7.8
2016-Apr-29 08:33N 56°04' E 010°39'7 7.2
2016-Apr-29 07:33N 56°11' E 010°46'8 7.7
2016-Apr-29 06:33N 56°17' E 010°54'43 7.9
2016-Apr-29 01:07N 56°57' E 010°25'6 8.7
2016-Apr-29 00:26N 56°59' E 010°15'8 8.8
2016-Apr-28 23:33N 57°03' E 010°03'4 4.1
2016-Apr-28 22:33N 57°03' E 009°56'0 0.0
2016-Apr-28 21:33N 57°03' E 009°56'0 0.0
2016-Apr-28 20:33N 57°03' E 009°56'0 0.0
2016-Apr-28 19:33N 57°03' E 009°56'0 0.0
2016-Apr-28 18:33N 57°03' E 009°56'0 0.0
2016-Apr-28 17:33N 57°03' E 009°56'0 0.0
2016-Apr-28 16:33N 57°03' E 009°56'0 0.0
2016-Apr-28 15:33N 57°03' E 009°56'0 0.0
2016-Apr-28 14:33N 57°03' E 009°56'0 0.0
2016-Apr-28 13:33N 57°03' E 009°56'0 0.0
2016-Apr-28 12:33N 57°03' E 009°56'0 0.0
2016-Apr-28 11:33N 57°03' E 009°56'0 0.0
2016-Apr-28 10:33N 57°03' E 009°56'0 0.0
2016-Apr-28 09:33N 57°03' E 009°56'0 0.0
2016-Apr-28 08:33N 57°03' E 009°56'0 0.0
2016-Apr-28 07:33N 57°03' E 009°56'0 0.0
2016-Apr-28 06:33N 57°03' E 009°56'0 0.0
2016-Apr-28 05:33N 57°03' E 009°56'3 2.6
2016-Apr-28 04:34N 57°05' E 009°59'8 8.1
2016-Apr-28 03:33N 56°60' E 010°11'39 4.9
2016-Apr-27 19:30N 57°35' E 010°44'8 8.0
2016-Apr-27 18:32N 57°42' E 010°45'7 7.0
2016-Apr-27 17:32N 57°49' E 010°40'8 8.0
2016-Apr-27 16:32N 57°52' E 010°26'49 8.3
2016-Apr-27 10:33N 58°11' E 009°00'7 7.4
2016-Apr-27 09:33N 58°13' E 008°47'7 7.2
2016-Apr-27 08:33N 58°16' E 008°34'4 4.0
2016-Apr-27 07:33N 58°20' E 008°36'0 0.0
2016-Apr-27 06:33N 58°20' E 008°36'0 0.0
2016-Apr-27 05:33N 58°20' E 008°36'0 0.0
2016-Apr-27 04:33N 58°20' E 008°36'0 0.0
2016-Apr-27 03:33N 58°20' E 008°36'0 0.0
2016-Apr-27 02:33N 58°20' E 008°36'0 0.0
2016-Apr-27 01:33N 58°20' E 008°36'0 0.0
2016-Apr-27 00:33N 58°20' E 008°36'0 0.0
2016-Apr-26 23:33N 58°20' E 008°36'0 0.0
2016-Apr-26 22:33N 58°20' E 008°36'0 0.0
2016-Apr-26 21:33N 58°20' E 008°36'0 0.0
2016-Apr-26 20:33N 58°20' E 008°36'0 0.0
2016-Apr-26 19:33N 58°20' E 008°36'0 0.0
2016-Apr-26 18:33N 58°20' E 008°36'4 3.7
2016-Apr-26 17:33N 58°17' E 008°33'6 5.6
2016-Apr-26 16:33N 58°12' E 008°28'5 4.9
2016-Apr-26 15:33N 58°09' E 008°21'4 3.7
2016-Apr-26 14:33N 58°06' E 008°16'28 4.7
2016-Apr-26 08:32N 57°58' E 007°25'7 7.0
2016-Apr-26 07:32N 57°58' E 007°12'6 5.9
2016-Apr-26 06:33N 57°58' E 007°01'7 6.8
2016-Apr-26 05:33N 58°01' E 006°49'7 7.0
2016-Apr-26 04:33N 58°03' E 006°37'7 6.6
2016-Apr-26 03:33N 58°07' E 006°26'7 6.7
2016-Apr-26 02:33N 58°12' E 006°17'8 7.5
2016-Apr-26 01:33N 58°17' E 006°07'7 7.2
2016-Apr-26 00:33N 58°22' E 005°57'8 7.5
2016-Apr-25 23:33N 58°27' E 005°46'8 8.0
2016-Apr-25 22:33N 58°33' E 005°36'10 9.8
2016-Apr-25 21:33N 58°42' E 005°28'10 9.8
2016-Apr-25 20:33N 58°51' E 005°22'1010.1
2016-Apr-25 19:33N 59°01' E 005°19'10 9.6
2016-Apr-25 18:33N 59°11' E 005°20'21 9.2
2016-Apr-25 16:13N 59°32' E 005°13'810.3
2016-Apr-25 15:29N 59°39' E 005°19'1010.7
2016-Apr-25 14:33N 59°46' E 005°32'5 0.3
2016-Apr-24 18:33N 59°52' E 005°33'8 7.9
2016-Apr-24 17:33N 59°44' E 005°29'8 7.7
2016-Apr-24 16:33N 59°38' E 005°19'23 6.5
2016-Apr-24 13:06N 59°16' E 005°20'4 7.8
2016-Apr-24 12:33N 59°11' E 005°21'7 7.0
2016-Apr-24 11:33N 59°06' E 005°31'8 7.7
2016-Apr-24 10:33N 59°02' E 005°42'8 7.7
2016-Apr-24 09:33N 58°58' E 005°56'9 1.3
2016-Apr-24 02:26N 58°52' E 006°09'3 3.3
2016-Apr-24 01:28N 58°54' E 006°04'8 9.1
2016-Apr-24 00:33N 58°59' E 005°53'6 6.1
2016-Apr-23 23:33N 59°05' E 005°55'0 0.0
2016-Apr-23 22:33N 59°05' E 005°55'0 0.0
2016-Apr-23 21:33N 59°05' E 005°55'4 4.4
2016-Apr-23 20:33N 59°10' E 005°53'10 9.8
2016-Apr-23 19:33N 59°20' E 005°55'4 0.7
2016-Apr-23 14:33N 59°23' E 005°55'3 1.6
2016-Apr-23 12:24N 59°25' E 006°01'0 0.0
2016-Apr-23 11:33N 59°25' E 006°01'7 0.3
2016-Apr-22 10:23N 59°18' E 005°57'6 7.8
2016-Apr-22 09:33N 59°11' E 005°54'8 8.1
2016-Apr-22 08:33N 59°03' E 005°51'8 7.5
2016-Apr-22 07:33N 59°02' E 005°37'7 6.5
2016-Apr-22 06:33N 58°56' E 005°33'7 7.2
2016-Apr-22 05:33N 58°49' E 005°28'7 6.6
2016-Apr-22 04:33N 58°42' E 005°27'6 6.5
2016-Apr-22 03:33N 58°36' E 005°30'6 5.9
2016-Apr-22 02:34N 58°31' E 005°36'6 5.9
2016-Apr-22 01:33N 58°27' E 005°44'6 6.1
2016-Apr-22 00:32N 58°23' E 005°53'6 5.6
2016-Apr-21 23:33N 58°19' E 006°01'6 6.2
2016-Apr-21 22:33N 58°15' E 006°10'7 6.5
2016-Apr-21 21:33N 58°11' E 006°19'6 6.2
2016-Apr-21 20:33N 58°07' E 006°28'6 5.9
2016-Apr-21 19:33N 58°03' E 006°37'6 6.4
2016-Apr-21 18:33N 58°01' E 006°48'6 6.5
2016-Apr-21 17:33N 57°59' E 006°59'7 7.0
2016-Apr-21 16:33N 57°58' E 007°13'2 0.2
2016-Apr-21 05:32N 57°58' E 007°17'1010.3
2016-Apr-21 04:34N 57°59' E 006°58'1110.5
2016-Apr-21 03:33N 58°03' E 006°39'  

Dump ship's entire track history